createdAt,value
2023-06-17T00:01:10.267Z,98496.97
2023-06-17T00:03:45.429Z,98500.63
2023-06-17T00:06:12.657Z,98501.56
2023-06-17T00:08:40.013Z,98500.63
2023-06-17T00:11:07.457Z,98498.56
2023-06-17T00:13:35.210Z,98495.16
2023-06-17T00:16:05.901Z,98504.03
2023-06-17T00:18:33.854Z,98491.63
2023-06-17T00:21:00.977Z,98489.31
2023-06-17T00:23:28.317Z,98478.03
2023-06-17T00:25:55.257Z,98486.28
2023-06-17T00:28:22.873Z,98481.19
2023-06-17T00:30:49.949Z,98476.06
2023-06-17T00:33:17.190Z,98476.53
2023-06-17T00:35:44.185Z,98484.91
2023-06-17T00:38:11.471Z,98487.78
2023-06-17T00:40:38.571Z,98481.81
2023-06-17T00:43:06.179Z,98474.41
2023-06-17T00:45:40.258Z,98474.00
2023-06-17T00:48:12.117Z,98458.47
2023-06-17T00:50:39.665Z,98469.78
2023-06-17T00:53:07.621Z,98472.69
2023-06-17T00:55:35.740Z,98470.50
2023-06-17T00:58:03.509Z,98474.00
2023-06-17T01:00:30.792Z,98474.00
2023-06-17T01:02:59.876Z,98466.84
2023-06-17T01:05:28.305Z,98474.56
2023-06-17T01:08:34.461Z,98468.88
2023-06-17T01:11:09.614Z,98477.09
2023-06-17T01:13:38.988Z,98481.81
2023-06-17T01:16:06.440Z,98477.75
2023-06-17T01:18:34.494Z,98469.78
2023-06-17T01:21:05.227Z,98467.09
2023-06-17T01:23:39.362Z,98463.47
2023-06-17T01:26:08.399Z,98463.47
2023-06-17T01:28:39.454Z,98469.38
2023-06-17T01:31:09.288Z,98456.03
2023-06-17T01:33:40.021Z,98466.59
2023-06-17T01:36:21.102Z,98462.25
2023-06-17T01:38:59.398Z,98466.59
2023-06-17T01:41:37.231Z,98466.38
2023-06-17T01:44:09.221Z,98462.00
2023-06-17T01:46:38.459Z,98454.75
2023-06-17T01:49:07.911Z,98448.22
2023-06-17T01:51:35.036Z,98456.72
2023-06-17T01:54:02.659Z,98448.63
2023-06-17T01:56:30.110Z,98446.78
2023-06-17T01:58:57.521Z,98447.78
2023-06-17T02:01:24.786Z,98445.22
2023-06-17T02:03:52.925Z,98440.34
2023-06-17T02:06:19.981Z,98452.59
2023-06-17T02:08:48.761Z,98439.59
2023-06-17T02:11:16.609Z,98441.19
2023-06-17T02:13:43.981Z,98447.16
2023-06-17T02:16:11.496Z,98443.72
2023-06-17T02:18:38.775Z,98453.28
2023-06-17T02:21:05.844Z,98461.59
2023-06-17T02:23:33.127Z,98455.91
2023-06-17T02:26:00.181Z,98456.13
2023-06-17T02:28:27.439Z,98460.72
2023-06-17T02:30:54.425Z,98456.97
2023-06-17T02:33:24.142Z,98449.81
2023-06-17T02:35:51.184Z,98453.25
2023-06-17T02:38:18.608Z,98450.56
2023-06-17T02:40:45.707Z,98443.31
2023-06-17T02:43:13.001Z,98449.38
2023-06-17T02:45:40.048Z,98443.63
2023-06-17T02:48:07.387Z,98440.88
2023-06-17T02:50:34.526Z,98444.59
2023-06-17T02:53:01.815Z,98448.25
2023-06-17T02:55:29.029Z,98445.47
2023-06-17T02:57:56.246Z,98447.50
2023-06-17T03:00:24.330Z,98442.50
2023-06-17T03:02:52.096Z,98448.06
2023-06-17T03:05:19.957Z,98448.28
2023-06-17T03:07:48.015Z,98449.25
2023-06-17T03:10:16.632Z,98449.00
2023-06-17T03:12:43.982Z,98453.72
2023-06-17T03:15:11.717Z,98450.84
2023-06-17T03:17:39.039Z,98444.56
2023-06-17T03:20:09.636Z,98455.59
2023-06-17T03:22:37.101Z,98449.31
2023-06-17T03:25:05.228Z,98449.19
2023-06-17T03:27:32.740Z,98456.22
2023-06-17T03:29:59.884Z,98453.47
2023-06-17T03:32:27.380Z,98449.59
2023-06-17T03:34:54.770Z,98449.47
2023-06-17T03:37:23.971Z,98452.03
2023-06-17T03:39:50.890Z,98457.25
2023-06-17T03:42:18.634Z,98443.72
2023-06-17T03:44:45.761Z,98446.25
2023-06-17T03:47:13.215Z,98441.78
2023-06-17T03:49:40.174Z,98442.59
2023-06-17T03:52:08.212Z,98445.16
2023-06-17T03:54:35.392Z,98450.59
2023-06-17T03:57:02.742Z,98444.22
2023-06-17T03:59:29.790Z,98444.81
2023-06-17T04:01:57.066Z,98451.97
2023-06-17T04:04:24.460Z,98450.03
2023-06-17T04:06:51.771Z,98444.00
2023-06-17T04:09:18.878Z,98451.22
2023-06-17T04:11:46.142Z,98450.50
2023-06-17T04:14:13.084Z,98453.16
2023-06-17T04:16:43.016Z,98463.94
2023-06-17T04:19:14.813Z,98457.25
2023-06-17T04:21:42.208Z,98461.25
2023-06-17T04:24:09.419Z,98453.03
2023-06-17T04:26:37.353Z,98459.97
2023-06-17T04:29:07.380Z,98457.94
2023-06-17T04:31:36.832Z,98451.50
2023-06-17T04:34:03.937Z,98459.06
2023-06-17T04:36:31.377Z,98454.94
2023-06-17T04:38:59.861Z,98462.38
2023-06-17T04:41:28.837Z,98466.50
2023-06-17T04:43:55.697Z,98463.72
2023-06-17T04:46:22.936Z,98456.34
2023-06-17T04:48:50.451Z,98451.38
2023-06-17T04:51:19.112Z,98454.66
2023-06-17T04:53:46.261Z,98457.75
2023-06-17T04:56:13.709Z,98451.59
2023-06-17T04:58:40.952Z,98458.16
2023-06-17T05:01:08.328Z,98454.75
2023-06-17T05:03:35.567Z,98469.59
2023-06-17T05:06:03.282Z,98461.19
2023-06-17T05:08:30.428Z,98468.38
2023-06-17T05:10:57.717Z,98471.53
2023-06-17T05:13:24.790Z,98465.34
2023-06-17T05:15:52.102Z,98468.97
2023-06-17T05:18:19.139Z,98470.69
2023-06-17T05:20:46.496Z,98466.28
2023-06-17T05:23:13.708Z,98463.50
2023-06-17T05:25:41.047Z,98466.78
2023-06-17T05:28:08.468Z,98468.38
2023-06-17T05:30:36.093Z,98472.25
2023-06-17T05:33:03.232Z,98475.03
2023-06-17T05:35:30.676Z,98481.47
2023-06-17T05:37:57.764Z,98476.16
2023-06-17T05:40:25.089Z,98483.19
2023-06-17T05:42:52.070Z,98478.56
2023-06-17T05:45:19.350Z,98484.53
2023-06-17T05:47:47.265Z,98483.78
2023-06-17T05:50:14.719Z,98479.31
2023-06-17T05:52:41.675Z,98481.22
2023-06-17T05:55:11.496Z,98479.91
2023-06-17T05:57:38.552Z,98476.28
2023-06-17T06:00:07.065Z,98478.94
2023-06-17T06:02:34.222Z,98480.50
2023-06-17T06:05:01.536Z,98487.31
2023-06-17T06:07:28.598Z,98483.91
2023-06-17T06:09:56.052Z,98482.44
2023-06-17T06:12:23.045Z,98486.94
2023-06-17T06:14:52.641Z,98484.56
2023-06-17T06:17:19.867Z,98490.59
2023-06-17T06:19:47.141Z,98487.78
2023-06-17T06:22:14.323Z,98490.44
2023-06-17T06:24:41.796Z,98487.72
2023-06-17T06:27:08.889Z,98495.47
2023-06-17T06:29:36.446Z,98490.91
2023-06-17T06:32:04.460Z,98487.47
2023-06-17T06:34:31.927Z,98480.78
2023-06-17T06:36:59.629Z,98479.56
2023-06-17T06:39:27.657Z,98484.41
2023-06-17T06:41:54.653Z,98487.66
2023-06-17T06:44:22.033Z,98489.97
2023-06-17T06:46:49.041Z,98489.72
2023-06-17T06:49:16.495Z,98488.59
2023-06-17T06:51:43.502Z,98491.84
2023-06-17T06:54:10.957Z,98487.78
2023-06-17T06:56:37.963Z,98493.44
2023-06-17T06:59:05.130Z,98488.66
2023-06-17T07:01:32.314Z,98491.78
2023-06-17T07:03:59.565Z,98488.72
2023-06-17T07:06:26.501Z,98488.06
2023-06-17T07:08:54.480Z,98490.91
2023-06-17T07:11:21.509Z,98491.94
2023-06-17T07:13:48.733Z,98489.84
2023-06-17T07:16:15.849Z,98486.78
2023-06-17T07:18:43.093Z,98482.56
2023-06-17T07:21:11.650Z,98482.78
2023-06-17T07:23:38.961Z,98485.06
2023-06-17T07:26:07.741Z,98482.84
2023-06-17T07:28:34.998Z,98484.03
2023-06-17T07:31:02.038Z,98479.13
2023-06-17T07:33:29.670Z,98481.41
2023-06-17T07:35:56.673Z,98475.91
2023-06-17T07:38:25.430Z,98473.50
2023-06-17T07:40:53.154Z,98479.72
2023-06-17T07:43:20.638Z,98481.28
2023-06-17T07:45:48.194Z,98486.38
2023-06-17T07:48:15.609Z,98485.22
2023-06-17T07:50:42.920Z,98484.56
2023-06-17T07:53:10.271Z,98476.50
2023-06-17T07:55:38.877Z,98474.22
2023-06-17T07:58:06.590Z,98472.97
2023-06-17T08:00:33.659Z,98483.56
2023-06-17T08:03:01.396Z,98473.25
2023-06-17T08:05:28.549Z,98478.31
2023-06-17T08:07:55.976Z,98482.31
2023-06-17T08:10:23.809Z,98482.06
2023-06-17T08:12:51.645Z,98491.03
2023-06-17T08:15:18.805Z,98486.66
2023-06-17T08:17:46.373Z,98478.22
2023-06-17T08:20:15.187Z,98475.41
2023-06-17T08:22:42.836Z,98469.63
2023-06-17T08:25:10.328Z,98478.63
2023-06-17T08:27:38.815Z,98483.31
2023-06-17T08:30:07.690Z,98464.41
2023-06-17T08:32:35.161Z,98475.56
2023-06-17T08:35:07.358Z,98471.72
2023-06-17T08:37:35.133Z,98470.59
2023-06-17T08:40:06.294Z,98467.19
2023-06-17T08:42:34.009Z,98464.78
2023-06-17T08:45:01.796Z,98462.97
2023-06-17T08:47:29.459Z,98462.66
2023-06-17T08:49:58.086Z,98452.44
2023-06-17T08:52:27.430Z,98455.00
2023-06-17T08:54:55.541Z,98446.22
2023-06-17T08:57:23.354Z,98449.47
2023-06-17T08:59:50.603Z,98451.03
2023-06-17T09:02:18.777Z,98446.63
2023-06-17T09:04:46.016Z,98451.75
2023-06-17T09:07:14.007Z,98445.78
2023-06-17T09:09:41.700Z,98446.78
2023-06-17T09:12:09.754Z,98448.47
2023-06-17T09:14:38.008Z,98443.09
2023-06-17T09:17:05.497Z,98441.41
2023-06-17T09:19:33.125Z,98432.59
2023-06-17T09:22:07.902Z,98435.28
2023-06-17T09:24:35.135Z,98436.84
2023-06-17T09:27:03.842Z,98426.03
2023-06-17T09:29:31.272Z,98420.88
2023-06-17T09:31:59.260Z,98408.38
2023-06-17T09:34:27.944Z,98423.31
2023-06-17T09:37:02.137Z,98407.72
2023-06-17T09:39:32.012Z,98403.28
2023-06-17T09:42:10.141Z,98393.63
2023-06-17T09:44:41.712Z,98395.63
2023-06-17T09:47:10.237Z,98396.56
2023-06-17T09:49:38.271Z,98391.09
2023-06-17T09:52:09.442Z,98390.56
2023-06-17T09:54:38.259Z,98386.44
2023-06-17T09:57:10.545Z,98380.19
2023-06-17T09:59:38.034Z,98371.06
2023-06-17T10:02:06.407Z,98364.56
2023-06-17T10:04:35.836Z,98371.41
2023-06-17T10:07:08.250Z,98373.09
2023-06-17T10:09:36.498Z,98367.63
2023-06-17T10:12:06.880Z,98371.53
2023-06-17T10:14:36.470Z,98368.84
2023-06-17T10:17:12.321Z,98383.94
2023-06-17T10:19:42.945Z,98405.41
2023-06-17T10:22:15.065Z,98424.00
2023-06-17T10:24:43.557Z,98408.41
2023-06-17T10:27:11.159Z,98418.34
2023-06-17T10:29:46.001Z,98424.78
2023-06-17T10:32:26.063Z,98404.34
2023-06-17T10:35:22.685Z,98400.53
2023-06-17T10:37:51.843Z,98401.66
2023-06-17T10:40:25.983Z,98404.66
2023-06-17T10:43:02.936Z,98400.91
2023-06-17T10:45:45.829Z,98411.03
2023-06-17T10:48:30.392Z,98402.50
2023-06-17T10:51:03.570Z,98400.59
2023-06-17T10:53:37.441Z,98404.22
2023-06-17T10:56:11.533Z,98402.88
2023-06-17T10:58:48.762Z,98394.44
2023-06-17T11:01:16.210Z,98395.38
2023-06-17T11:03:43.845Z,98393.13
2023-06-17T11:06:11.687Z,98400.75
2023-06-17T11:08:39.551Z,98404.28
2023-06-17T11:11:15.516Z,98397.09
2023-06-17T11:13:48.553Z,98391.22
2023-06-17T11:16:15.814Z,98393.59
2023-06-17T11:18:45.843Z,98387.00
2023-06-17T11:21:13.012Z,98374.00
2023-06-17T11:23:44.428Z,98379.09
2023-06-17T11:26:11.970Z,98372.16
2023-06-17T11:28:42.548Z,98366.63
2023-06-17T11:31:09.822Z,98370.53
2023-06-17T11:33:40.121Z,98371.34
2023-06-17T11:36:11.262Z,98372.78
2023-06-17T11:38:39.694Z,98373.31
2023-06-17T11:41:07.363Z,98370.72
2023-06-17T11:43:35.178Z,98367.28
2023-06-17T11:46:03.954Z,98370.75
2023-06-17T11:48:35.956Z,98363.50
2023-06-17T11:51:03.870Z,98368.56
2023-06-17T11:53:37.858Z,98360.91
2023-06-17T11:56:08.150Z,98361.16
2023-06-17T11:58:39.813Z,98357.00
2023-06-17T12:01:09.983Z,98349.06
2023-06-17T12:03:38.229Z,98358.00
2023-06-17T12:06:06.361Z,98368.03
2023-06-17T12:08:39.012Z,98382.69
2023-06-17T12:11:26.867Z,98406.91
2023-06-17T12:13:55.790Z,98422.44
2023-06-17T12:16:37.590Z,98457.31
2023-06-17T12:19:09.169Z,98375.88
2023-06-17T12:21:37.321Z,98380.97
2023-06-17T12:24:04.894Z,98377.56
2023-06-17T12:26:35.094Z,98370.88
2023-06-17T12:29:08.424Z,98379.03
2023-06-17T12:31:38.852Z,98385.69
2023-06-17T12:34:07.849Z,98388.97
2023-06-17T12:36:35.096Z,98381.78
2023-06-17T12:39:05.325Z,98372.34
2023-06-17T12:41:32.864Z,98364.69
2023-06-17T12:44:00.304Z,98365.56
2023-06-17T12:46:27.858Z,98370.06
2023-06-17T12:48:55.189Z,98369.78
2023-06-17T12:51:22.167Z,98371.28
2023-06-17T12:53:49.547Z,98370.69
2023-06-17T12:56:16.509Z,98383.06
2023-06-17T12:58:43.885Z,98380.47
2023-06-17T13:01:11.040Z,98371.69
2023-06-17T13:03:38.315Z,98374.84
2023-06-17T13:06:06.313Z,98379.34
2023-06-17T13:08:33.595Z,98365.59
2023-06-17T13:11:00.574Z,98378.63
2023-06-17T13:13:28.888Z,98372.28
2023-06-17T13:15:56.512Z,98365.72
2023-06-17T13:18:23.749Z,98368.19
2023-06-17T13:20:52.806Z,98370.31
2023-06-17T13:23:20.737Z,98361.19
2023-06-17T13:25:47.896Z,98361.75
2023-06-17T13:28:15.200Z,98361.75
2023-06-17T13:30:42.392Z,98372.91
2023-06-17T13:33:09.912Z,98375.91
2023-06-17T13:35:37.201Z,98370.16
2023-06-17T13:38:04.833Z,98366.22
2023-06-17T13:40:32.299Z,98362.47
2023-06-17T13:42:59.679Z,98357.72
2023-06-17T13:45:27.834Z,98341.56
2023-06-17T13:47:55.458Z,98347.34
2023-06-17T13:50:23.185Z,98352.19
2023-06-17T13:52:50.885Z,98362.91
2023-06-17T13:55:18.565Z,98356.66
2023-06-17T13:57:45.863Z,98369.22
2023-06-17T14:00:13.270Z,98393.06
2023-06-17T14:02:40.422Z,98402.91
2023-06-17T14:05:08.181Z,98426.56
2023-06-17T14:07:35.631Z,98420.72
2023-06-17T14:10:02.776Z,98419.25
2023-06-17T14:12:30.081Z,98400.13
2023-06-17T14:14:57.013Z,98399.28
2023-06-17T14:17:25.163Z,98400.81
2023-06-17T14:19:52.476Z,98402.56
2023-06-17T14:22:19.665Z,98401.06
2023-06-17T14:24:46.994Z,98413.97
2023-06-17T14:27:43.891Z,98425.34
2023-06-17T14:30:15.840Z,98414.44
2023-06-17T14:32:46.438Z,98408.66
2023-06-17T14:35:17.475Z,98408.19
2023-06-17T14:37:47.925Z,98407.22
2023-06-17T14:40:17.446Z,98406.59
2023-06-17T14:42:45.803Z,98403.69
2023-06-17T14:45:15.805Z,98404.91
2023-06-17T14:47:45.112Z,98405.50
2023-06-17T14:50:13.208Z,98419.81
2023-06-17T14:52:48.586Z,98428.81
2023-06-17T14:55:16.446Z,98418.38
2023-06-17T14:57:43.819Z,98422.97
2023-06-17T15:00:12.488Z,98427.09
2023-06-17T15:02:58.249Z,98409.41
2023-06-17T15:05:27.949Z,98411.81
2023-06-17T15:07:55.724Z,98415.81
2023-06-17T15:10:23.299Z,98428.31
2023-06-17T15:12:51.064Z,98431.41
2023-06-17T15:15:18.607Z,98420.09
2023-06-17T15:17:46.199Z,98416.34
2023-06-17T15:20:14.084Z,98408.44
2023-06-17T15:22:42.701Z,98414.78
2023-06-17T15:25:11.124Z,98428.00
2023-06-17T15:27:38.592Z,98437.75
2023-06-17T15:30:06.650Z,98454.47
2023-06-17T15:32:34.036Z,98468.06
2023-06-17T15:35:01.247Z,98463.34
2023-06-17T15:37:30.709Z,98424.66
2023-06-17T15:39:57.884Z,98406.38
2023-06-17T15:42:25.430Z,98435.34
2023-06-17T15:44:52.749Z,98441.41
2023-06-17T15:47:20.051Z,98431.34
2023-06-17T15:49:47.080Z,98433.78
2023-06-17T15:52:14.441Z,98422.63
2023-06-17T15:54:41.623Z,98417.63
2023-06-17T15:57:10.102Z,98423.72
2023-06-17T15:59:37.318Z,98417.34
2023-06-17T16:02:05.088Z,98407.81
2023-06-17T16:04:40.365Z,98404.22
2023-06-17T16:07:12.018Z,98402.66
2023-06-17T16:09:43.924Z,98388.34
2023-06-17T16:12:15.495Z,98388.78
2023-06-17T16:14:44.826Z,98399.50
2023-06-17T16:17:12.765Z,98395.25
2023-06-17T16:19:40.130Z,98394.13
2023-06-17T16:22:13.607Z,98398.19
2023-06-17T16:24:42.920Z,98394.44
2023-06-17T16:27:12.133Z,98407.16
2023-06-17T16:29:40.339Z,98404.06
2023-06-17T16:32:08.114Z,98407.97
2023-06-17T16:34:35.580Z,98407.47
2023-06-17T16:37:03.651Z,98412.31
2023-06-17T16:39:31.220Z,98412.97
2023-06-17T16:41:58.782Z,98418.19
2023-06-17T16:44:26.196Z,98414.72
2023-06-17T16:46:54.039Z,98415.75
2023-06-17T16:49:21.145Z,98421.22
2023-06-17T16:51:49.012Z,98423.38
2023-06-17T16:54:16.323Z,98421.69
2023-06-17T16:56:43.791Z,98436.72
2023-06-17T16:59:12.007Z,98437.69
2023-06-17T17:01:40.380Z,98435.72
2023-06-17T17:04:13.792Z,98433.31
2023-06-17T17:06:43.592Z,98433.38
2023-06-17T17:09:11.292Z,98446.38
2023-06-17T17:11:38.620Z,98455.56
2023-06-17T17:14:05.850Z,98447.66
2023-06-17T17:16:33.358Z,98444.03
2023-06-17T17:19:00.588Z,98444.50
2023-06-17T17:21:28.219Z,98440.06
2023-06-17T17:23:55.310Z,98448.66
2023-06-17T17:26:22.985Z,98454.75
2023-06-17T17:28:50.092Z,98458.03
2023-06-17T17:31:17.746Z,98449.75
2023-06-17T17:33:45.352Z,98449.63
2023-06-17T17:36:15.304Z,98456.06
2023-06-17T17:38:43.484Z,98458.16
2023-06-17T17:41:12.349Z,98468.59
2023-06-17T17:43:39.881Z,98484.16
2023-06-17T17:46:12.557Z,98491.06
2023-06-17T17:48:39.949Z,98483.16
2023-06-17T17:51:07.520Z,98464.50
2023-06-17T17:53:34.743Z,98463.38
2023-06-17T17:56:02.254Z,98458.25
2023-06-17T17:58:29.386Z,98458.03
2023-06-17T18:01:02.359Z,98466.78
2023-06-17T18:03:29.901Z,98463.41
2023-06-17T18:05:57.721Z,98460.00
2023-06-17T18:08:24.829Z,98464.44
2023-06-17T18:10:52.053Z,98461.41
2023-06-17T18:13:19.154Z,98465.03
2023-06-17T18:15:46.607Z,98467.72
2023-06-17T18:18:13.698Z,98472.94
2023-06-17T18:20:41.182Z,98468.72
2023-06-17T18:23:08.461Z,98468.59
2023-06-17T18:25:35.908Z,98470.38
2023-06-17T18:28:03.113Z,98463.47
2023-06-17T18:30:31.474Z,98457.19
2023-06-17T18:32:58.670Z,98454.63
2023-06-17T18:35:26.172Z,98460.09
2023-06-17T18:37:53.473Z,98462.00
2023-06-17T18:40:21.536Z,98453.03
2023-06-17T18:42:49.895Z,98459.22
2023-06-17T18:45:18.047Z,98458.25
2023-06-17T18:47:45.301Z,98458.63
2023-06-17T18:50:12.995Z,98455.13
2023-06-17T18:52:40.146Z,98443.84
2023-06-17T18:55:09.078Z,98446.13
2023-06-17T18:57:36.609Z,98446.97
2023-06-17T19:00:05.797Z,98441.63
2023-06-17T19:02:33.386Z,98444.53
2023-06-17T19:05:01.386Z,98448.34
2023-06-17T19:07:28.901Z,98455.47
2023-06-17T19:09:58.005Z,98458.28
2023-06-17T19:12:25.476Z,98454.63
2023-06-17T19:14:56.103Z,98460.09
2023-06-17T19:17:23.365Z,98470.78
2023-06-17T19:19:51.701Z,98472.75
2023-06-17T19:22:19.184Z,98467.41
2023-06-17T19:24:46.547Z,98478.81
2023-06-17T19:27:13.710Z,98483.31
2023-06-17T19:29:41.604Z,98486.00
2023-06-17T19:32:09.173Z,98487.06
2023-06-17T19:34:37.212Z,98486.22
2023-06-17T19:37:05.091Z,98491.69
2023-06-17T19:39:32.654Z,98486.59
2023-06-17T19:41:59.783Z,98501.66
2023-06-17T19:44:33.643Z,98501.44
2023-06-17T19:47:01.303Z,98498.00
2023-06-17T19:49:28.671Z,98506.13
2023-06-17T19:51:56.933Z,98505.53
2023-06-17T19:54:24.823Z,98504.81
2023-06-17T19:56:53.219Z,98505.81
2023-06-17T19:59:23.419Z,98501.44
2023-06-17T20:01:51.874Z,98502.25
2023-06-17T20:04:20.023Z,98504.09
2023-06-17T20:06:47.200Z,98506.78
2023-06-17T20:09:14.739Z,98508.31
2023-06-17T20:11:41.812Z,98506.66
2023-06-17T20:14:09.246Z,98512.31
2023-06-17T20:16:37.303Z,98508.94
2023-06-17T20:19:04.774Z,98502.84
2023-06-17T20:21:31.933Z,98493.13
2023-06-17T20:23:59.936Z,98497.53
2023-06-17T20:26:27.385Z,98498.97
2023-06-17T20:28:55.114Z,98494.56
2023-06-17T20:31:22.497Z,98487.69
2023-06-17T20:33:53.011Z,98496.28
2023-06-17T20:36:20.266Z,98501.75
2023-06-17T20:38:47.695Z,98490.94
2023-06-17T20:41:14.796Z,98488.50
2023-06-17T20:43:42.609Z,98494.84
2023-06-17T20:46:10.468Z,98495.69
2023-06-17T20:48:37.949Z,98492.91
2023-06-17T20:51:08.423Z,98490.47
2023-06-17T20:53:35.858Z,98492.28
2023-06-17T20:56:02.922Z,98499.44
2023-06-17T20:58:33.402Z,98493.38
2023-06-17T21:01:00.621Z,98495.09
2023-06-17T21:03:28.300Z,98499.31
2023-06-17T21:05:55.712Z,98496.75
2023-06-17T21:08:23.451Z,98503.09
2023-06-17T21:10:50.742Z,98500.44
2023-06-17T21:13:18.240Z,98505.06
2023-06-17T21:15:46.057Z,98498.59
2023-06-17T21:18:13.852Z,98498.72
2023-06-17T21:20:41.136Z,98499.94
2023-06-17T21:23:08.651Z,98508.91
2023-06-17T21:25:35.918Z,98507.09
2023-06-17T21:28:04.925Z,98510.75
2023-06-17T21:30:32.198Z,98510.88
2023-06-17T21:32:59.593Z,98503.81
2023-06-17T21:35:26.846Z,98506.59
2023-06-17T21:37:54.278Z,98508.31
2023-06-17T21:40:21.610Z,98513.66
2023-06-17T21:42:49.239Z,98511.09
2023-06-17T21:45:18.818Z,98522.03
2023-06-17T21:47:46.194Z,98517.66
2023-06-17T21:50:13.443Z,98515.22
2023-06-17T21:52:41.038Z,98518.88
2023-06-17T21:55:08.899Z,98514.63
2023-06-17T21:57:36.322Z,98512.91
2023-06-17T22:00:04.248Z,98513.63
2023-06-17T22:02:31.540Z,98518.25
2023-06-17T22:04:58.669Z,98513.91
2023-06-17T22:07:26.029Z,98516.56
2023-06-17T22:09:53.254Z,98511.47
2023-06-17T22:12:20.969Z,98511.59
2023-06-17T22:14:48.039Z,98510.88
2023-06-17T22:17:15.712Z,98516.44
2023-06-17T22:19:42.860Z,98514.00
2023-06-17T22:22:10.494Z,98510.38
2023-06-17T22:24:38.932Z,98514.00
2023-06-17T22:27:07.608Z,98509.63
2023-06-17T22:29:34.799Z,98511.69
2023-06-17T22:32:04.244Z,98511.19
2023-06-17T22:34:31.460Z,98509.72
2023-06-17T22:36:59.147Z,98510.69
2023-06-17T22:39:26.395Z,98508.03
2023-06-17T22:41:54.125Z,98516.16
2023-06-17T22:44:21.275Z,98520.63
2023-06-17T22:46:48.889Z,98509.25
2023-06-17T22:49:15.999Z,98509.25
2023-06-17T22:51:43.436Z,98507.41
2023-06-17T22:54:11.150Z,98502.31
2023-06-17T22:56:38.473Z,98501.69
2023-06-17T22:59:05.792Z,98500.25
2023-06-17T23:01:33.267Z,98497.81
2023-06-17T23:04:00.692Z,98497.19
2023-06-17T23:06:28.295Z,98501.03
2023-06-17T23:08:55.616Z,98496.09
2023-06-17T23:11:23.235Z,98496.50
2023-06-17T23:13:50.473Z,98500.25
2023-06-17T23:16:17.783Z,98497.69
2023-06-17T23:18:45.005Z,98501.56
2023-06-17T23:21:13.837Z,98502.28
2023-06-17T23:23:41.732Z,98490.06
2023-06-17T23:26:12.650Z,98493.06
2023-06-17T23:28:41.105Z,98492.44
2023-06-17T23:31:12.044Z,98496.94
2023-06-17T23:33:39.522Z,98491.94
2023-06-17T23:36:09.940Z,98490.56
2023-06-17T23:38:40.698Z,98501.59
2023-06-17T23:41:08.047Z,98503.53
2023-06-17T23:43:35.538Z,98502.88
2023-06-17T23:46:04.374Z,98507.59
2023-06-17T23:48:31.835Z,98501.53
2023-06-17T23:50:59.634Z,98500.81
2023-06-17T23:53:26.737Z,98504.41
2023-06-17T23:55:54.120Z,98501.88
2023-06-17T23:58:21.480Z,98500.06
